Webcams

Webcam1&2        Webcam1 (Zeitraffer 2 Std.)        Webcam2 (Zeitraffer 2 Std.)

Webcam1 - Zeitraffer (die letzten zwei Stunden, Intervall: 10min)
cam1--20181218_212958M
cam1--20181219_043000M
cam1--20181219_043958M
cam1--20181219_045000M
cam1--20181219_045959M
cam1--20181219_050959M
cam1--20181219_051959M
cam1--20181219_052958M
cam1--20181219_053958M
cam1--20181219_055000M
cam1--20181219_055958M
cam1--20181219_060958M
cam1--20181219_062000M
01/13 
start stop bwd fwd

Webcam1 - Aktuell

Lokale Serverzeit 06:20 | 19.12.2018
Webcam-Lageplan

Flugwetter

[source: ADDS]
METAR
LOWL 190450Z 09007KT 6000 FEW005 SCT008 M02/M02 Q1020 R08/19//95 TEMPO BKN007 =
TAF LOWL 190515Z 1906/2006 08006KT 6000 SCT008 BKN160 TX00/1914Z TNM02/1906Z TEMPO 1906/1912 11008KT 4000 BR FEW005 BKN006 BECMG 1919/1921 4000 BR BKN005 BKN100 TEMPO 2004/2006 2500 -SN BKN005 BKN030
TAF
TAF LOWL 190515Z 1906/2006 08006KT 6000 SCT008 BKN160 TX00/1914Z TNM02/1906Z TEMPO 1906/1912 11008KT 4000 BR FEW005 BKN006 BECMG 1919/1921 4000 BR BKN005 BKN100 TEMPO 2004/2006 2500 -SN BKN005 BKN030 =